Alda, Nebraska
Current Conditions -  °F | °C
As of 4:53 AM on Saturday 01 Nov 2014 (Local Time) from KGRI Reporting Station
Clear Clear  
Wind Chill: 21°   Ceiling: Unl
Heat Index: 30°   Visibility: 10mi
Dew Point: 17°   Wind: 10mph
Humidity: 59%   Direction: 150°SSE
Pressure: 30.32"   Gusts: NA
Location:  40.87°N, 98.47°W
Report Text: KGRI 010953Z AUTO 15009KT 10SM CLR M01/M08 A3032 RMK AO2 SLP282 T10111083
Loading
Personal Weather Stations






























Interactive Weather Map
Tropical Storm Tracking
New forecast layout! Learn more

10-Day Weather Forecast

Advertisements
Track Severe Weather on mobile